sensor_id;sensor_type;location;lat;lon;timestamp;pressure;altitude;pressure_sealevel;temperature;humidity
46836;BME280;32573;51.290;6.926;2023-11-19T00:00:32;99552.97;;;10.44;100.00
46836;BME280;32573;51.290;6.926;2023-11-19T00:03:01;99542.53;;;10.47;100.00
46836;BME280;32573;51.290;6.926;2023-11-19T00:05:31;99549.56;;;10.50;100.00
46836;BME280;32573;51.290;6.926;2023-11-19T00:08:00;99558.31;;;10.52;100.00
46836;BME280;32573;51.290;6.926;2023-11-19T00:10:29;99566.22;;;10.53;100.00
46836;BME280;32573;51.290;6.926;2023-11-19T00:12:58;99574.06;;;10.55;100.00
46836;BME280;32573;51.290;6.926;2023-11-19T00:15:29;99575.88;;;10.57;100.00
46836;BME280;32573;51.290;6.926;2023-11-19T00:17:58;99586.38;;;10.59;100.00
46836;BME280;32573;51.290;6.926;2023-11-19T00:20:28;99593.41;;;10.62;100.00
46836;BME280;32573;51.290;6.926;2023-11-19T00:22:58;99602.16;;;10.64;100.00
46836;BME280;32573;51.290;6.926;2023-11-19T00:25:28;99602.16;;;10.65;100.00
46836;BME280;32573;51.290;6.926;2023-11-19T00:27:57;99596.97;;;10.67;100.00
46836;BME280;32573;51.290;6.926;2023-11-19T00:30:27;99597.03;;;10.70;100.00
46836;BME280;32573;51.290;6.926;2023-11-19T00:32:55;99597.03;;;10.70;100.00
46836;BME280;32573;51.290;6.926;2023-11-19T00:35:24;99597.06;;;10.71;100.00
46836;BME280;32573;51.290;6.926;2023-11-19T00:37:53;99589.22;;;10.71;100.00
46836;BME280;32573;51.290;6.926;2023-11-19T00:40:23;99597.06;;;10.73;100.00
46836;BME280;32573;51.290;6.926;2023-11-19T00:42:52;99602.31;;;10.73;100.00
46836;BME280;32573;51.290;6.926;2023-11-19T00:45:20;99597.13;;;10.74;100.00
46836;BME280;32573;51.290;6.926;2023-11-19T00:47:49;99589.31;;;10.76;100.00
46836;BME280;32573;51.290;6.926;2023-11-19T00:50:18;99593.63;;;10.75;100.00
46836;BME280;32573;51.290;6.926;2023-11-19T00:52:46;99584.06;;;10.77;100.00
46836;BME280;32573;51.290;6.926;2023-11-19T00:55:15;99569.25;;;10.78;100.00
46836;BME280;32573;51.290;6.926;2023-11-19T00:57:46;99561.38;;;10.78;100.00
46836;BME280;32573;51.290;6.926;2023-11-19T01:00:15;99564.97;;;10.82;100.00
46836;BME280;32573;51.290;6.926;2023-11-19T01:02:47;99572.81;;;10.82;100.00
46836;BME280;32573;51.290;6.926;2023-11-19T01:05:19;99593.81;;;10.85;100.00
46836;BME280;32573;51.290;6.926;2023-11-19T01:07:50;99565.00;;;10.85;100.00
46836;BME280;32573;51.290;6.926;2023-11-19T01:10:22;99556.28;;;10.86;100.00
46836;BME280;32573;51.290;6.926;2023-11-19T01:12:53;99545.88;;;10.89;100.00
46836;BME280;32573;51.290;6.926;2023-11-19T01:15:22;99557.22;;;10.89;100.00
46836;BME280;32573;51.290;6.926;2023-11-19T01:17:51;99552.03;;;10.91;100.00
46836;BME280;32573;51.290;6.926;2023-11-19T01:20:20;99559.88;;;10.92;100.00
46836;BME280;32573;51.290;6.926;2023-11-19T01:22:50;99550.31;;;10.94;100.00
46836;BME280;32573;51.290;6.926;2023-11-19T01:25:19;99546.00;;;10.96;100.00
46836;BME280;32573;51.290;6.926;2023-11-19T01:27:47;99556.47;;;10.98;100.00
46836;BME280;32573;51.290;6.926;2023-11-19T01:30:18;99543.44;;;10.99;100.00
46836;BME280;32573;51.290;6.926;2023-11-19T01:32:49;99553.03;;;11.00;100.00
46836;BME280;32573;51.290;6.926;2023-11-19T01:35:18;99561.78;;;11.01;100.00
46836;BME280;32573;51.290;6.926;2023-11-19T01:37:46;99560.97;;;11.04;100.00
46836;BME280;32573;51.290;6.926;2023-11-19T01:40:15;99564.47;;;11.06;100.00
46836;BME280;32573;51.290;6.926;2023-11-19T01:42:44;99568.88;;;11.08;100.00
46836;BME280;32573;51.290;6.926;2023-11-19T01:45:27;99551.44;;;11.09;100.00
46836;BME280;32573;51.290;6.926;2023-11-19T01:48:00;99553.19;;;11.10;100.00
46836;BME280;32573;51.290;6.926;2023-11-19T01:50:29;99543.63;;;11.12;100.00
46836;BME280;32573;51.290;6.926;2023-11-19T01:52:58;99543.66;;;11.15;100.00
46836;BME280;32573;51.290;6.926;2023-11-19T01:55:28;99562.91;;;11.17;100.00
46836;BME280;32573;51.290;6.926;2023-11-19T01:57:59;99571.72;;;11.22;100.00
46836;BME280;32573;51.290;6.926;2023-11-19T02:00:31;99566.53;;;11.25;100.00
46836;BME280;32573;51.290;6.926;2023-11-19T02:03:01;99559.56;;;11.27;100.00
46836;BME280;32573;51.290;6.926;2023-11-19T02:05:31;99565.75;;;11.31;100.00
46836;BME280;32573;51.290;6.926;2023-11-19T02:08:00;99556.19;;;11.34;100.00
46836;BME280;32573;51.290;6.926;2023-11-19T02:10:30;99550.09;;;11.37;100.00
46836;BME280;32573;51.290;6.926;2023-11-19T02:13:01;99553.63;;;11.40;100.00
46836;BME280;32573;51.290;6.926;2023-11-19T02:15:34;99551.13;;;11.47;100.00
46836;BME280;32573;51.290;6.926;2023-11-19T02:18:19;99538.97;;;11.52;100.00
46836;BME280;32573;51.290;6.926;2023-11-19T02:20:49;99518.03;;;11.55;100.00
46836;BME280;32573;51.290;6.926;2023-11-19T02:23:19;99514.59;;;11.59;100.00
46836;BME280;32573;51.290;6.926;2023-11-19T02:25:58;99504.16;;;11.62;100.00
46836;BME280;32573;51.290;6.926;2023-11-19T02:28:29;99499.84;;;11.67;100.00
46836;BME280;32573;51.290;6.926;2023-11-19T02:31:00;99481.53;;;11.70;100.00
46836;BME280;32573;51.290;6.926;2023-11-19T02:33:29;99479.81;;;11.72;100.00
46836;BME280;32573;51.290;6.926;2023-11-19T02:35:57;99496.47;;;11.76;100.00
46836;BME280;32573;51.290;6.926;2023-11-19T02:38:26;99501.72;;;11.77;100.00
46836;BME280;32573;51.290;6.926;2023-11-19T02:40:54;99506.16;;;11.81;100.00
46836;BME280;32573;51.290;6.926;2023-11-19T02:43:23;99490.41;;;11.81;100.00
46836;BME280;32573;51.290;6.926;2023-11-19T02:45:53;99490.44;;;11.84;100.00
46836;BME280;32573;51.290;6.926;2023-11-19T02:48:23;99489.63;;;11.87;100.00
46836;BME280;32573;51.290;6.926;2023-11-19T02:50:52;99498.41;;;11.89;100.00
46836;BME280;32573;51.290;6.926;2023-11-19T02:53:20;99492.28;;;11.90;100.00
46836;BME280;32573;51.290;6.926;2023-11-19T02:55:50;99491.44;;;11.93;100.00
46836;BME280;32573;51.290;6.926;2023-11-19T02:58:19;99494.97;;;11.95;100.00
46836;BME280;32573;51.290;6.926;2023-11-19T03:00:56;99492.38;;;11.98;100.00
46836;BME280;32573;51.290;6.926;2023-11-19T03:03:27;99488.91;;;11.99;100.00
46836;BME280;32573;51.290;6.926;2023-11-19T03:06:05;99489.81;;;12.01;100.00
46836;BME280;32573;51.290;6.926;2023-11-19T03:08:36;99480.19;;;12.03;100.00
46836;BME280;32573;51.290;6.926;2023-11-19T03:11:05;99479.34;;;12.05;100.00
46836;BME280;32573;51.290;6.926;2023-11-19T03:13:33;99471.50;;;12.07;100.00
46836;BME280;32573;51.290;6.926;2023-11-19T03:16:04;99476.75;;;12.08;100.00
46836;BME280;32573;51.290;6.926;2023-11-19T03:18:33;99468.88;;;12.10;100.00
46836;BME280;32573;51.290;6.926;2023-11-19T03:21:02;99475.03;;;12.12;100.00
46836;BME280;32573;51.290;6.926;2023-11-19T03:23:31;99467.19;;;12.14;100.00
46836;BME280;32573;51.290;6.926;2023-11-19T03:26:00;99472.44;;;12.15;100.00
46836;BME280;32573;51.290;6.926;2023-11-19T03:28:31;99469.81;;;12.15;100.00
46836;BME280;32573;51.290;6.926;2023-11-19T03:30:59;99476.88;;;12.19;100.00
46836;BME280;32573;51.290;6.926;2023-11-19T03:33:29;99466.38;;;12.19;100.00
46836;BME280;32573;51.290;6.926;2023-11-19T03:35:58;99475.16;;;12.21;100.00
46836;BME280;32573;51.290;6.926;2023-11-19T03:38:28;99475.13;;;12.23;100.00
46836;BME280;32573;51.290;6.926;2023-11-19T03:40:57;99484.78;;;12.25;100.00
46836;BME280;32573;51.290;6.926;2023-11-19T03:43:26;99483.06;;;12.27;100.00
46836;BME280;32573;51.290;6.926;2023-11-19T03:45:55;99489.22;;;12.29;100.00
46836;BME280;32573;51.290;6.926;2023-11-19T03:48:24;99483.97;;;12.29;100.00
46836;BME280;32573;51.290;6.926;2023-11-19T03:50:54;99490.09;;;12.32;100.00
46836;BME280;32573;51.290;6.926;2023-11-19T03:53:22;99495.34;;;12.32;100.00
46836;BME280;32573;51.290;6.926;2023-11-19T03:55:51;99488.34;;;12.32;100.00
46836;BME280;32573;51.290;6.926;2023-11-19T03:58:20;99492.72;;;12.32;100.00
46836;BME280;32573;51.290;6.926;2023-11-19T04:00:49;99503.25;;;12.33;100.00
46836;BME280;32573;51.290;6.926;2023-11-19T04:03:17;99504.13;;;12.34;100.00
46836;BME280;32573;51.290;6.926;2023-11-19T04:05:47;99508.50;;;12.35;100.00
46836;BME280;32573;51.290;6.926;2023-11-19T04:08:17;99505.03;;;12.36;100.00
46836;BME280;32573;51.290;6.926;2023-11-19T04:10:47;99512.03;;;12.37;100.00
46836;BME280;32573;51.290;6.926;2023-11-19T04:13:15;99512.03;;;12.37;100.00
46836;BME280;32573;51.290;6.926;2023-11-19T04:15:45;99516.41;;;12.38;100.00
46836;BME280;32573;51.290;6.926;2023-11-19T04:18:13;99495.41;;;12.38;100.00
46836;BME280;32573;51.290;6.926;2023-11-19T04:20:42;99498.03;;;12.38;100.00
46836;BME280;32573;51.290;6.926;2023-11-19T04:23:11;99491.91;;;12.37;100.00
46836;BME280;32573;51.290;6.926;2023-11-19T04:25:41;99496.28;;;12.37;100.00
46836;BME280;32573;51.290;6.926;2023-11-19T04:28:09;99501.53;;;12.37;100.00
46836;BME280;32573;51.290;6.926;2023-11-19T04:30:40;99505.03;;;12.36;100.00
46836;BME280;32573;51.290;6.926;2023-11-19T04:33:09;99515.53;;;12.36;100.00
46836;BME280;32573;51.290;6.926;2023-11-19T04:35:37;99511.13;;;12.35;100.00
46836;BME280;32573;51.290;6.926;2023-11-19T04:38:06;99508.50;;;12.35;100.00
46836;BME280;32573;51.290;6.926;2023-11-19T04:40:35;99514.63;;;12.34;100.00
46836;BME280;32573;51.290;6.926;2023-11-19T04:43:05;99509.38;;;12.34;100.00
46836;BME280;32573;51.290;6.926;2023-11-19T04:45:36;99502.38;;;12.34;100.00
46836;BME280;32573;51.290;6.926;2023-11-19T04:48:06;99508.50;;;12.35;100.00
46836;BME280;32573;51.290;6.926;2023-11-19T04:50:36;99506.75;;;12.34;100.00
46836;BME280;32573;51.290;6.926;2023-11-19T04:53:05;99507.63;;;12.34;100.00
46836;BME280;32573;51.290;6.926;2023-11-19T04:55:33;99506.75;;;12.34;100.00
46836;BME280;32573;51.290;6.926;2023-11-19T04:58:02;99506.75;;;12.34;100.00
46836;BME280;32573;51.290;6.926;2023-11-19T05:00:32;99506.75;;;12.34;100.00
46836;BME280;32573;51.290;6.926;2023-11-19T05:03:01;99527.75;;;12.34;100.00
46836;BME280;32573;51.290;6.926;2023-11-19T05:05:30;99513.75;;;12.35;100.00
46836;BME280;32573;51.290;6.926;2023-11-19T05:07:58;99519.88;;;12.34;100.00
46836;BME280;32573;51.290;6.926;2023-11-19T05:10:27;99512.88;;;12.34;100.00
46836;BME280;32573;51.290;6.926;2023-11-19T05:12:56;99507.63;;;12.34;100.00
46836;BME280;32573;51.290;6.926;2023-11-19T05:15:24;99511.13;;;12.35;100.00
46836;BME280;32573;51.290;6.926;2023-11-19T05:17:54;99511.13;;;12.35;100.00
46836;BME280;32573;51.290;6.926;2023-11-19T05:20:23;99526.03;;;12.36;100.00
46836;BME280;32573;51.290;6.926;2023-11-19T05:22:52;99540.88;;;12.35;100.00
46836;BME280;32573;51.290;6.926;2023-11-19T05:25:20;99537.38;;;12.35;100.00
46836;BME280;32573;51.290;6.926;2023-11-19T05:27:49;99524.25;;;12.35;100.00
46836;BME280;32573;51.290;6.926;2023-11-19T05:30:17;99528.63;;;12.34;100.00
46836;BME280;32573;51.290;6.926;2023-11-19T05:32:46;99533.00;;;12.34;100.00
46836;BME280;32573;51.290;6.926;2023-11-19T05:35:16;99521.63;;;12.33;100.00
46836;BME280;32573;51.290;6.926;2023-11-19T05:37:44;99528.59;;;12.33;100.00
46836;BME280;32573;51.290;6.926;2023-11-19T05:40:13;99523.34;;;12.33;100.00
46836;BME280;32573;51.290;6.926;2023-11-19T05:42:43;99526.84;;;12.32;100.00
46836;BME280;32573;51.290;6.926;2023-11-19T05:45:12;99527.72;;;12.30;100.00
46836;BME280;32573;51.290;6.926;2023-11-19T05:47:41;99539.09;;;12.31;100.00
46836;BME280;32573;51.290;6.926;2023-11-19T05:50:10;99527.72;;;12.30;100.00
46836;BME280;32573;51.290;6.926;2023-11-19T05:52:40;99532.97;;;12.30;100.00
46836;BME280;32573;51.290;6.926;2023-11-19T05:55:09;99553.06;;;12.30;100.00
46836;BME280;32573;51.290;6.926;2023-11-19T05:57:39;99549.56;;;12.29;100.00
46836;BME280;32573;51.290;6.926;2023-11-19T06:00:12;99534.69;;;12.28;100.00
46836;BME280;32573;51.290;6.926;2023-11-19T06:02:45;99532.91;;;12.27;100.00
46836;BME280;32573;51.290;6.926;2023-11-19T06:05:14;99542.53;;;12.27;100.00
46836;BME280;32573;51.290;6.926;2023-11-19T06:07:43;99559.16;;;12.27;100.00
46836;BME280;32573;51.290;6.926;2023-11-19T06:10:13;99548.66;;;12.27;100.00
46836;BME280;32573;51.290;6.926;2023-11-19T06:12:45;99541.66;;;12.26;100.00
46836;BME280;32573;51.290;6.926;2023-11-19T06:15:13;99538.13;;;12.24;100.00
46836;BME280;32573;51.290;6.926;2023-11-19T06:17:42;99532.88;;;12.24;100.00
46836;BME280;32573;51.290;6.926;2023-11-19T06:20:11;99550.34;;;12.22;100.00
46836;BME280;32573;51.290;6.926;2023-11-19T06:22:41;99546.81;;;12.20;100.00
46836;BME280;32573;51.290;6.926;2023-11-19T06:25:14;99551.19;;;12.20;100.00
46836;BME280;32573;51.290;6.926;2023-11-19T06:27:43;99547.72;;;12.19;100.00
46836;BME280;32573;51.290;6.926;2023-11-19T06:30:12;99541.56;;;12.17;100.00
46836;BME280;32573;51.290;6.926;2023-11-19T06:32:41;99544.19;;;12.16;100.00
46836;BME280;32573;51.290;6.926;2023-11-19T06:35:10;99551.16;;;12.15;100.00
46836;BME280;32573;51.290;6.926;2023-11-19T06:37:39;99553.78;;;12.15;100.00
46836;BME280;32573;51.290;6.926;2023-11-19T06:40:08;99543.25;;;12.12;100.00
46836;BME280;32573;51.290;6.926;2023-11-19T06:42:39;99540.63;;;12.11;100.00
46836;BME280;32573;51.290;6.926;2023-11-19T06:45:08;99543.22;;;12.09;100.00
46836;BME280;32573;51.290;6.926;2023-11-19T06:47:36;99552.81;;;12.07;100.00
46836;BME280;32573;51.290;6.926;2023-11-19T06:50:06;99555.44;;;12.07;100.00
46836;BME280;32573;51.290;6.926;2023-11-19T06:52:36;99556.31;;;12.06;100.00
46836;BME280;32573;51.290;6.926;2023-11-19T06:55:06;99553.63;;;12.03;100.00
46836;BME280;32573;51.290;6.926;2023-11-19T06:57:35;99558.88;;;12.03;100.00
46836;BME280;32573;51.290;6.926;2023-11-19T07:00:07;99565.88;;;12.01;100.00
46836;BME280;32573;51.290;6.926;2023-11-19T07:02:36;99557.94;;;11.98;100.00
46836;BME280;32573;51.290;6.926;2023-11-19T07:05:06;99550.06;;;11.98;100.00
46836;BME280;32573;51.290;6.926;2023-11-19T07:07:35;99557.06;;;11.96;100.00
46836;BME280;32573;51.290;6.926;2023-11-19T07:10:05;99557.00;;;11.93;100.00
46836;BME280;32573;51.290;6.926;2023-11-19T07:12:36;99550.00;;;11.92;100.00
46836;BME280;32573;51.290;6.926;2023-11-19T07:15:07;99561.34;;;11.89;100.00
46836;BME280;32573;51.290;6.926;2023-11-19T07:17:38;99554.31;;;11.88;100.00
46836;BME280;32573;51.290;6.926;2023-11-19T07:20:08;99560.38;;;11.85;100.00
46836;BME280;32573;51.290;6.926;2023-11-19T07:22:43;99560.38;;;11.84;100.00
46836;BME280;32573;51.290;6.926;2023-11-19T07:25:13;99560.34;;;11.82;100.00
46836;BME280;32573;51.290;6.926;2023-11-19T07:27:42;99571.69;;;11.81;100.00
46836;BME280;32573;51.290;6.926;2023-11-19T07:30:12;99576.91;;;11.80;100.00
46836;BME280;32573;51.290;6.926;2023-11-19T07:32:41;99576.91;;;11.78;100.00
46836;BME280;32573;51.290;6.926;2023-11-19T07:35:10;99582.13;;;11.77;100.00
46836;BME280;32573;51.290;6.926;2023-11-19T07:37:39;99570.75;;;11.76;100.00
46836;BME280;32573;51.290;6.926;2023-11-19T07:40:08;99579.47;;;11.75;100.00
46836;BME280;32573;51.290;6.926;2023-11-19T07:42:38;99599.56;;;11.75;100.00
46836;BME280;32573;51.290;6.926;2023-11-19T07:45:08;99601.31;;;11.74;100.00
46836;BME280;32573;51.290;6.926;2023-11-19T07:47:38;99600.41;;;11.72;100.00
46836;BME280;32573;51.290;6.926;2023-11-19T07:50:08;99616.16;;;11.74;100.00
46836;BME280;32573;51.290;6.926;2023-11-19T07:52:37;99608.31;;;11.74;100.00
46836;BME280;32573;51.290;6.926;2023-11-19T07:55:06;99611.81;;;11.74;100.00
46836;BME280;32573;51.290;6.926;2023-11-19T07:57:35;99617.03;;;11.74;100.00
46836;BME280;32573;51.290;6.926;2023-11-19T08:00:05;99617.03;;;11.74;100.00
46836;BME280;32573;51.290;6.926;2023-11-19T08:02:42;99630.16;;;11.74;100.00
46836;BME280;32573;51.290;6.926;2023-11-19T08:05:12;99624.91;;;11.74;100.00
46836;BME280;32573;51.290;6.926;2023-11-19T08:07:41;99631.03;;;11.75;100.00
46836;BME280;32573;51.290;6.926;2023-11-19T08:10:10;99624.03;;;11.75;100.00
46836;BME280;32573;51.290;6.926;2023-11-19T08:12:38;99634.53;;;11.75;100.00
46836;BME280;32573;51.290;6.926;2023-11-19T08:15:08;99630.19;;;11.77;100.00
46836;BME280;32573;51.290;6.926;2023-11-19T08:17:37;99630.19;;;11.77;100.00
46836;BME280;32573;51.290;6.926;2023-11-19T08:20:08;99639.84;;;11.78;100.00
46836;BME280;32573;51.290;6.926;2023-11-19T08:22:38;99644.22;;;11.79;100.00
46836;BME280;32573;51.290;6.926;2023-11-19T08:25:08;99657.34;;;11.82;100.00
46836;BME280;32573;51.290;6.926;2023-11-19T08:27:37;99651.28;;;11.83;100.00
46836;BME280;32573;51.290;6.926;2023-11-19T08:30:06;99650.44;;;11.86;100.00
46836;BME280;32573;51.290;6.926;2023-11-19T08:32:35;99633.88;;;11.87;100.00
46836;BME280;32573;51.290;6.926;2023-11-19T08:35:04;99633.91;;;11.89;100.00
46836;BME280;32573;51.290;6.926;2023-11-19T08:37:34;99641.75;;;11.90;100.00
46836;BME280;32573;51.290;6.926;2023-11-19T08:40:05;99629.56;;;11.92;100.00
46836;BME280;32573;51.290;6.926;2023-11-19T08:42:34;99626.97;;;11.94;100.00
46836;BME280;32573;51.290;6.926;2023-11-19T08:45:04;99626.97;;;11.94;100.00
46836;BME280;32573;51.290;6.926;2023-11-19T08:47:33;99630.50;;;11.96;100.00
46836;BME280;32573;51.290;6.926;2023-11-19T08:50:02;99628.75;;;11.96;100.00
46836;BME280;32573;51.290;6.926;2023-11-19T08:52:31;99634.00;;;11.98;100.00
46836;BME280;32573;51.290;6.926;2023-11-19T08:55:04;99638.41;;;11.99;100.00
46836;BME280;32573;51.290;6.926;2023-11-19T08:57:33;99635.78;;;11.99;100.00
46836;BME280;32573;51.290;6.926;2023-11-19T09:00:02;99641.91;;;11.99;100.00
46836;BME280;32573;51.290;6.926;2023-11-19T09:02:31;99645.44;;;12.01;100.00
46836;BME280;32573;51.290;6.926;2023-11-19T09:05:00;99644.56;;;12.02;100.00
46836;BME280;32573;51.290;6.926;2023-11-19T09:07:29;99647.19;;;12.02;100.00
46836;BME280;32573;51.290;6.926;2023-11-19T09:09:57;99650.72;;;12.04;100.00
46836;BME280;32573;51.290;6.926;2023-11-19T09:12:27;99647.22;;;12.05;100.00
46836;BME280;32573;51.290;6.926;2023-11-19T09:14:56;99640.25;;;12.07;100.00
46836;BME280;32573;51.290;6.926;2023-11-19T09:17:25;99644.66;;;12.10;100.00
46836;BME280;32573;51.290;6.926;2023-11-19T09:19:55;99642.94;;;12.12;100.00
46836;BME280;32573;51.290;6.926;2023-11-19T09:22:25;99643.88;;;12.16;100.00
46836;BME280;32573;51.290;6.926;2023-11-19T09:24:55;99656.16;;;12.18;100.00
46836;BME280;32573;51.290;6.926;2023-11-19T09:27:28;99643.94;;;12.22;100.00
46836;BME280;32573;51.290;6.926;2023-11-19T09:29:56;99643.09;;;12.24;100.00
46836;BME280;32573;51.290;6.926;2023-11-19T09:32:26;99647.50;;;12.27;100.00
46836;BME280;32573;51.290;6.926;2023-11-19T09:34:55;99643.16;;;12.29;100.00
46836;BME280;32573;51.290;6.926;2023-11-19T09:37:23;99642.34;;;12.33;100.00
46836;BME280;32573;51.290;6.926;2023-11-19T09:39:52;99639.75;;;12.36;100.00
46836;BME280;32573;51.290;6.926;2023-11-19T09:42:20;99647.66;;;12.39;100.00
46836;BME280;32573;51.290;6.926;2023-11-19T09:44:54;99647.69;;;12.42;100.00
46836;BME280;32573;51.290;6.926;2023-11-19T09:47:25;99650.38;;;12.47;100.00
46836;BME280;32573;51.290;6.926;2023-11-19T09:49:57;99648.66;;;12.49;100.00
46836;BME280;32573;51.290;6.926;2023-11-19T09:52:25;99641.69;;;12.51;100.00
46836;BME280;32573;51.290;6.926;2023-11-19T09:54:54;99660.06;;;12.52;100.00
46836;BME280;32573;51.290;6.926;2023-11-19T09:57:23;99649.56;;;12.52;100.00
46836;BME280;32573;51.290;6.926;2023-11-19T09:59:53;99667.97;;;12.54;100.00
46836;BME280;32573;51.290;6.926;2023-11-19T10:02:23;99641.72;;;12.54;100.00
46836;BME280;32573;51.290;6.926;2023-11-19T10:04:52;99646.97;;;12.54;100.00
46836;BME280;32573;51.290;6.926;2023-11-19T10:07:22;99641.72;;;12.54;100.00
46836;BME280;32573;51.290;6.926;2023-11-19T10:09:53;99646.97;;;12.54;100.00
46836;BME280;32573;51.290;6.926;2023-11-19T10:12:22;99640.81;;;12.55;100.00
46836;BME280;32573;51.290;6.926;2023-11-19T10:14:51;99639.09;;;12.54;100.00
46836;BME280;32573;51.290;6.926;2023-11-19T10:17:21;99658.34;;;12.55;100.00
46836;BME280;32573;51.290;6.926;2023-11-19T10:19:49;99642.59;;;12.55;100.00
46836;BME280;32573;51.290;6.926;2023-11-19T10:22:18;99634.72;;;12.56;100.00
46836;BME280;32573;51.290;6.926;2023-11-19T10:24:46;99639.09;;;12.57;100.00
46836;BME280;32573;51.290;6.926;2023-11-19T10:27:24;99623.38;;;12.60;100.00
46836;BME280;32573;51.290;6.926;2023-11-19T10:29:53;99629.53;;;12.62;100.00
46836;BME280;32573;51.290;6.926;2023-11-19T10:32:23;99624.28;;;12.62;100.00
46836;BME280;32573;51.290;6.926;2023-11-19T10:35:05;99620.84;;;12.66;100.00
46836;BME280;32573;51.290;6.926;2023-11-19T10:37:34;99620.88;;;12.69;100.00
46836;BME280;32573;51.290;6.926;2023-11-19T10:40:06;99618.25;;;12.72;100.00
46836;BME280;32573;51.290;6.926;2023-11-19T10:42:37;99621.81;;;12.76;100.00
46836;BME280;32573;51.290;6.926;2023-11-19T10:45:21;99613.97;;;12.79;100.00
46836;BME280;32573;51.290;6.926;2023-11-19T10:47:54;99613.09;;;12.80;100.00
46836;BME280;32573;51.290;6.926;2023-11-19T10:50:24;99611.38;;;12.84;100.00
46836;BME280;32573;51.290;6.926;2023-11-19T10:52:56;99607.03;;;12.86;100.00
46836;BME280;32573;51.290;6.926;2023-11-19T10:55:27;99621.03;;;12.88;100.00
46836;BME280;32573;51.290;6.926;2023-11-19T10:57:59;99628.06;;;12.89;100.00
46836;BME280;32573;51.290;6.926;2023-11-19T11:00:29;99615.84;;;12.91;100.00
46836;BME280;32573;51.290;6.926;2023-11-19T11:03:02;99617.59;;;12.92;100.00
46836;BME280;32573;51.290;6.926;2023-11-19T11:05:34;99616.72;;;12.94;100.00
46836;BME280;32573;51.290;6.926;2023-11-19T11:08:06;99624.63;;;12.98;100.00
46836;BME280;32573;51.290;6.926;2023-11-19T11:10:39;99608.91;;;12.99;100.00
46836;BME280;32573;51.290;6.926;2023-11-19T11:13:13;99610.66;;;13.00;100.00
46836;BME280;32573;51.290;6.926;2023-11-19T11:15:42;99612.41;;;13.01;100.00
46836;BME280;32573;51.290;6.926;2023-11-19T11:18:15;99608.91;;;13.02;100.00
46836;BME280;32573;51.290;6.926;2023-11-19T11:20:44;99612.41;;;13.01;100.00
46836;BME280;32573;51.290;6.926;2023-11-19T11:23:38;99613.28;;;13.02;100.00
46836;BME280;32573;51.290;6.926;2023-11-19T11:26:43;99608.91;;;13.02;100.00
46836;BME280;32573;51.290;6.926;2023-11-19T11:29:26;99610.66;;;13.02;100.00
46836;BME280;32573;51.290;6.926;2023-11-19T11:32:07;99608.91;;;13.02;100.00
46836;BME280;32573;51.290;6.926;2023-11-19T11:34:57;99611.53;;;13.02;100.00
46836;BME280;32573;51.290;6.926;2023-11-19T11:37:32;99590.53;;;13.02;100.00
46836;BME280;32573;51.290;6.926;2023-11-19T11:40:02;99588.78;;;13.04;100.00
46836;BME280;32573;51.290;6.926;2023-11-19T11:42:37;99587.91;;;13.05;100.00
46836;BME280;32573;51.290;6.926;2023-11-19T11:45:07;99592.31;;;13.08;100.00
46836;BME280;32573;51.290;6.926;2023-11-19T11:48:05;99587.13;;;13.11;100.00
46836;BME280;32573;51.290;6.926;2023-11-19T11:50:48;99593.25;;;13.14;100.00
46836;BME280;32573;51.290;6.926;2023-11-19T11:53:18;99580.16;;;13.19;100.00
46836;BME280;32573;51.290;6.926;2023-11-19T11:55:55;99577.56;;;13.24;100.00
46836;BME280;32573;51.290;6.926;2023-11-19T11:58:29;99584.63;;;13.28;100.00
46836;BME280;32573;51.290;6.926;2023-11-19T12:01:01;99579.41;;;13.31;100.00
46836;BME280;32573;51.290;6.926;2023-11-19T12:03:31;99574.16;;;13.34;100.00
46836;BME280;32573;51.290;6.926;2023-11-19T12:06:03;99577.69;;;13.36;100.00
46836;BME280;32573;51.290;6.926;2023-11-19T12:08:34;99572.44;;;13.37;100.00
46836;BME280;32573;51.290;6.926;2023-11-19T12:11:20;99566.31;;;13.38;100.00
46836;BME280;32573;51.290;6.926;2023-11-19T12:13:57;99579.47;;;13.38;100.00
46836;BME280;32573;51.290;6.926;2023-11-19T12:16:29;99565.44;;;13.38;100.00
46836;BME280;32573;51.290;6.926;2023-11-19T12:19:03;99574.19;;;13.37;100.00
46836;BME280;32573;51.290;6.926;2023-11-19T12:21:34;99563.66;;;13.37;100.00
46836;BME280;32573;51.290;6.926;2023-11-19T12:24:08;99553.16;;;13.37;100.00
46836;BME280;32573;51.290;6.926;2023-11-19T12:26:38;99550.53;;;13.37;100.00
46836;BME280;32573;51.290;6.926;2023-11-19T12:29:07;99554.03;;;13.39;100.00
46836;BME280;32573;51.290;6.926;2023-11-19T12:31:37;99552.28;;;13.40;100.00
46836;BME280;32573;51.290;6.926;2023-11-19T12:34:09;99552.28;;;13.40;100.00
46836;BME280;32573;51.290;6.926;2023-11-19T12:36:42;99547.94;;;13.42;100.00
46836;BME280;32573;51.290;6.926;2023-11-19T12:39:11;99537.41;;;13.40;100.00
46836;BME280;32573;51.290;6.926;2023-11-19T12:41:52;99540.91;;;13.39;100.00
46836;BME280;32573;51.290;6.926;2023-11-19T12:44:22;99536.53;;;13.38;100.00
46836;BME280;32573;51.290;6.926;2023-11-19T12:47:00;99528.66;;;13.38;100.00
46836;BME280;32573;51.290;6.926;2023-11-19T12:49:28;99540.91;;;13.36;100.00
46836;BME280;32573;51.290;6.926;2023-11-19T12:51:58;99539.13;;;13.35;100.00
46836;BME280;32573;51.290;6.926;2023-11-19T12:54:35;99555.78;;;13.34;100.00
46836;BME280;32573;51.290;6.926;2023-11-19T12:57:05;99555.78;;;13.34;100.00
46836;BME280;32573;51.290;6.926;2023-11-19T12:59:34;99545.22;;;13.32;100.00
46836;BME280;32573;51.290;6.926;2023-11-19T13:02:03;99551.34;;;13.30;100.00
46836;BME280;32573;51.290;6.926;2023-11-19T13:04:33;99550.44;;;13.28;100.00
46836;BME280;32573;51.290;6.926;2023-11-19T13:07:04;99546.06;;;13.27;100.00